Time;durP1;ratioP1;P1;durP2;ratioP2;P2;SDS_P1;SDS_P2;PMS_P1;PMS_P2;Temp;Humidity;BMP_temperature;BMP_pressure;BME280_temperature;BME280_humidity;BME280_pressure;Samples;Min_cycle;Max_cycle;Signal;HPM_P1;HPM_P2
2021/11/02 00:01:39;;;;;;;26.73;15.65;;;;;;;10.17;92.93;99074.13;5074697;28;20041;-77
2021/11/02 00:04:08;;;;;;;24.30;14.73;;;;;;;10.23;92.31;99058.56;5074492;28;20041;-76
2021/11/02 00:06:36;;;;;;;26.40;15.15;;;;;;;10.33;91.49;99066.69;5074537;28;20366;-77
2021/11/02 00:09:13;;;;;;;27.35;15.57;;;;;;;10.31;91.49;99061.47;5075007;28;20041;-76
2021/11/02 00:11:43;;;;;;;24.55;15.75;;;;;;;10.22;91.63;99064.84;5074449;28;20489;-77
2021/11/02 00:14:14;;;;;;;25.27;15.32;;;;;;;10.29;90.89;99073.22;5074214;28;20454;-77
2021/11/02 00:16:44;;;;;;;30.17;16.83;;;;;;;10.09;93.41;99061.41;5074434;28;20044;-77
2021/11/02 00:19:13;;;;;;;30.88;15.93;;;;;;;10.24;91.03;99065.59;5074412;28;20067;-77
2021/11/02 00:21:45;;;;;;;25.42;16.02;;;;;;;10.26;90.84;99057.47;5074320;28;20048;-77
2021/11/02 00:24:15;;;;;;;27.30;15.80;;;;;;;10.19;90.67;99054.38;5074614;28;20109;-77
2021/11/02 00:26:45;;;;;;;24.25;14.82;;;;;;;10.28;89.68;99045.72;5074307;28;20037;-77
2021/11/02 00:29:13;;;;;;;27.55;16.85;;;;;;;10.19;90.25;99041.06;5074507;28;20044;-77
2021/11/02 00:31:41;;;;;;;27.92;16.33;;;;;;;10.31;88.30;99040.13;5074435;28;20123;-77
2021/11/02 00:34:09;;;;;;;30.08;16.88;;;;;;;10.29;88.97;99033.25;5074007;28;20481;-85
2021/11/02 00:36:37;;;;;;;27.17;15.52;;;;;;;10.27;88.21;99033.38;5073764;28;20135;-76
2021/11/02 00:39:06;;;;;;;29.20;17.10;;;;;;;10.26;88.60;99034.34;5074199;28;20263;-76
2021/11/02 00:41:34;;;;;;;27.30;17.40;;;;;;;10.21;89.29;99027.63;5073991;28;20048;-76
2021/11/02 00:44:04;;;;;;;30.60;17.15;;;;;;;10.12;89.32;99036.31;5073739;28;20059;-76
2021/11/02 00:46:34;;;;;;;26.92;17.25;;;;;;;10.00;89.96;99030.13;5073834;28;20102;-78
2021/11/02 00:49:04;;;;;;;29.38;17.33;;;;;;;10.08;89.49;99032.22;5074139;28;20041;-79
2021/11/02 00:51:32;;;;;;;30.80;18.10;;;;;;;10.04;89.61;99026.28;5073747;28;20044;-79
2021/11/02 00:54:00;;;;;;;29.27;17.42;;;;;;;10.10;88.39;99019.63;5073486;28;20048;-79
2021/11/02 00:56:28;;;;;;;27.33;16.92;;;;;;;10.11;88.15;99022.16;5073930;28;20040;-80
2021/11/02 00:58:57;;;;;;;28.77;17.85;;;;;;;10.07;88.93;99010.06;5073705;28;20121;-79
2021/11/02 01:01:26;;;;;;;29.45;17.63;;;;;;;10.15;88.38;99002.31;5074079;28;20114;-79
2021/11/02 01:03:54;;;;;;;28.10;16.85;;;;;;;10.06;88.57;99003.03;5073302;28;20469;-78
2021/11/02 01:06:23;;;;;;;29.17;17.70;;;;;;;10.03;88.12;99001.44;5106540;28;20055;-78
2021/11/02 01:08:51;;;;;;;27.55;17.15;;;;;;;10.10;87.89;98999.16;5073478;28;20040;-78
2021/11/02 01:11:20;;;;;;;31.40;17.75;;;;;;;10.08;88.12;98990.44;5073709;28;20060;-79
2021/11/02 01:13:48;;;;;;;27.90;16.35;;;;;;;10.02;88.21;98996.22;5073165;28;20094;-79
2021/11/02 01:16:16;;;;;;;31.52;17.88;;;;;;;9.95;88.57;98987.88;5073423;28;20044;-78
2021/11/02 01:18:46;;;;;;;28.83;17.58;;;;;;;9.92;89.11;98987.25;5073111;28;20037;-77
2021/11/02 01:21:14;;;;;;;29.02;17.83;;;;;;;9.92;88.95;98985.44;5073409;28;20044;-78
2021/11/02 01:23:42;;;;;;;26.85;16.20;;;;;;;10.03;88.03;98987.25;5073114;28;20048;-79
2021/11/02 01:26:11;;;;;;;33.28;19.02;;;;;;;9.94;88.22;98982.66;5073351;28;20064;-78
2021/11/02 01:28:39;;;;;;;29.65;16.88;;;;;;;9.99;88.30;98986.66;5073234;28;20481;-83
2021/11/02 01:31:08;;;;;;;28.35;17.98;;;;;;;9.93;88.46;98980.97;5073425;28;20040;-78
2021/11/02 01:33:37;;;;;;;30.38;17.30;;;;;;;9.99;88.14;98983.16;5073454;28;20060;-84
2021/11/02 01:36:08;;;;;;;28.83;16.88;;;;;;;9.93;88.55;98981.81;5072998;28;20078;-83
2021/11/02 01:38:36;;;;;;;31.83;18.48;;;;;;;9.96;88.72;98978.06;5077080;28;20044;-84
2021/11/02 01:41:05;;;;;;;26.92;16.85;;;;;;;10.01;88.20;98965.22;5072702;28;20072;-84
2021/11/02 01:43:34;;;;;;;29.60;17.38;;;;;;;10.04;88.22;98967.69;5072859;28;20095;-84
2021/11/02 01:46:03;;;;;;;27.52;16.90;;;;;;;10.02;87.98;98959.78;5072749;28;20053;-84
2021/11/02 01:48:32;;;;;;;30.00;17.33;;;;;;;9.93;88.25;98964.97;5072728;28;20048;-83
2021/11/02 01:51:01;;;;;;;29.67;17.42;;;;;;;9.82;88.97;98967.63;5072247;28;20185;-74
2021/11/02 01:53:34;;;;;;;26.75;18.02;;;;;;;9.80;89.54;98964.25;5072721;28;20059;-76
2021/11/02 01:56:02;;;;;;;29.05;17.20;;;;;;;9.80;88.91;98958.91;5072578;28;20041;-76
2021/11/02 01:58:30;;;;;;;32.22;18.27;;;;;;;9.84;89.04;98957.69;5072305;28;20060;-76
2021/11/02 02:01:01;;;;;;;29.75;17.55;;;;;;;9.89;88.87;98956.38;5072240;28;20048;-78
2021/11/02 02:03:38;;;;;;;26.83;16.58;;;;;;;9.87;88.90;98957.47;5072797;28;20050;-77
2021/11/02 02:06:15;;;;;;;30.45;17.45;;;;;;;9.78;89.24;98951.06;5072470;28;20041;-78
2021/11/02 02:08:56;;;;;;;28.42;17.48;;;;;;;9.81;88.36;98949.97;5072526;28;20070;-78
2021/11/02 02:11:35;;;;;;;30.23;17.38;;;;;;;9.82;89.14;98943.66;5072213;28;20057;-78
2021/11/02 02:14:11;;;;;;;30.58;17.58;;;;;;;9.82;88.94;98935.66;5072070;28;20044;-78
2021/11/02 02:16:42;;;;;;;28.15;16.38;;;;;;;9.86;88.43;98935.34;5072450;28;20043;-78
2021/11/02 02:19:31;;;;;;;28.70;17.33;;;;;;;9.79;88.77;98936.75;5072354;28;20055;-78
2021/11/02 02:22:10;;;;;;;29.70;17.33;;;;;;;9.73;88.55;98935.41;5071014;28;20051;-78
2021/11/02 02:24:58;;;;;;;30.10;17.48;;;;;;;9.71;88.45;98929.38;5071122;28;20056;-78
2021/11/02 02:27:35;;;;;;;25.42;15.82;;;;;;;9.74;88.46;98926.44;5072323;28;20080;-78
2021/11/02 02:30:09;;;;;;;27.10;15.93;;;;;;;9.64;88.39;98906.84;5071702;28;20098;-78
2021/11/02 02:32:43;;;;;;;27.33;16.67;;;;;;;9.67;88.55;98917.28;5072123;28;20050;-78
2021/11/02 02:35:14;;;;;;;26.30;15.65;;;;;;;9.82;87.53;98919.69;5071974;28;20448;-78
2021/11/02 02:37:45;;;;;;;28.48;17.63;;;;;;;9.67;88.57;98919.09;5071820;28;20072;-83
2021/11/02 02:40:14;;;;;;;29.17;16.55;;;;;;;9.60;88.84;98923.19;5072060;28;20048;-78
2021/11/02 02:42:45;;;;;;;28.05;17.55;;;;;;;9.59;88.59;98930.31;5071754;28;20127;-80
2021/11/02 02:45:16;;;;;;;28.83;17.23;;;;;;;9.66;88.42;98928.88;5071956;28;20051;-78
2021/11/02 02:47:47;;;;;;;30.48;17.58;;;;;;;9.73;87.74;98934.56;5071897;28;20397;-84
2021/11/02 02:50:16;;;;;;;28.42;16.95;;;;;;;9.67;87.69;98937.72;5072456;28;20044;-78
2021/11/02 02:52:45;;;;;;;27.67;17.17;;;;;;;9.62;88.46;98946.06;5071609;28;20090;-84
2021/11/02 02:55:15;;;;;;;28.75;17.73;;;;;;;9.61;88.03;98938.19;5070344;28;20056;-78
2021/11/02 02:57:48;;;;;;;30.90;16.90;;;;;;;9.60;88.53;98952.47;5071544;28;20045;-82
2021/11/02 03:00:19;;;;;;;26.30;16.77;;;;;;;9.66;88.40;98950.19;5071603;28;20052;-78
2021/11/02 03:02:49;;;;;;;27.73;17.70;;;;;;;9.69;88.21;98941.97;5071675;28;20427;-79
2021/11/02 03:05:19;;;;;;;25.13;15.85;;;;;;;9.77;87.36;98929.88;5071781;28;20040;-78
2021/11/02 03:07:47;;;;;;;26.23;16.15;;;;;;;9.80;86.72;98937.63;5071548;28;20047;-81
2021/11/02 03:10:16;;;;;;;31.05;17.17;;;;;;;9.80;87.02;98937.63;5071578;28;20048;-80
2021/11/02 03:12:50;;;;;;;26.90;16.70;;;;;;;9.77;87.21;98940.53;5071666;28;20059;-80
2021/11/02 03:15:44;;;;;;;26.50;16.50;;;;;;;9.75;87.43;98938.81;5072219;28;20470;-80
2021/11/02 03:18:30;;;;;;;29.13;16.60;;;;;;;9.71;88.04;98937.34;5071722;28;20131;-79
2021/11/02 03:44:04;;;;;;;26.92;16.75;;;;;;;9.56;87.09;98903.94;5075057;28;20041;-77
2021/11/02 03:49:28;;;;;;;27.88;16.95;;;;;;;9.49;87.36;98892.06;5075372;28;20349;-77
2021/11/02 03:54:49;;;;;;;27.25;17.52;;;;;;;9.44;87.29;98879.09;5074730;28;20041;-77
2021/11/02 03:57:30;;;;;;;27.85;16.60;;;;;;;9.45;87.38;98890.59;5075364;28;20139;-76
2021/11/02 04:31:29;;;;;;;25.15;15.02;;;;;;;9.24;87.93;98849.66;5074050;28;20033;-74
2021/11/02 05:07:54;;;;;;;28.75;16.40;;;;;;;8.83;89.11;98798.69;5073646;28;20478;-77
2021/11/02 05:10:50;;;;;;;27.23;15.98;;;;;;;8.80;89.25;98819.34;5073651;28;20048;-78
2021/11/02 05:20:14;;;;;;;29.23;16.75;;;;;;;8.81;89.70;98811.25;5068567;28;20521;-79
2021/11/02 05:47:25;;;;;;;28.20;16.52;;;;;;;8.48;95.54;98813.75;5072259;28;20085;-72
2021/11/02 05:50:00;;;;;;;27.88;16.50;;;;;;;8.56;95.28;98814.03;5072565;28;20127;-72
2021/11/02 05:52:55;;;;;;;29.33;16.58;;;;;;;8.33;98.65;98797.13;5072991;28;20049;-75
2021/11/02 05:55:46;;;;;;;28.52;16.58;;;;;;;8.26;97.73;98780.78;5072207;28;20041;-72
2021/11/02 05:58:18;;;;;;;32.63;18.02;;;;;;;8.14;100.00;98759.59;5072136;28;20469;-72
2021/11/02 06:00:56;;;;;;;28.77;17.48;;;;;;;8.02;100.00;98733.00;5072600;28;20044;-75
2021/11/02 06:03:38;;;;;;;30.73;18.02;;;;;;;7.99;100.00;98733.19;5072101;28;20124;-76
2021/11/02 06:06:15;;;;;;;31.33;17.25;;;;;;;7.97;100.00;98735.13;5072033;28;20405;-74
2021/11/02 06:09:00;;;;;;;31.58;17.80;;;;;;;7.81;100.00;98731.88;5072413;28;20392;-75
2021/11/02 06:28:36;;;;;;;30.75;17.40;;;;;;;7.93;100.00;98764.69;5072063;28;20048;-77
2021/11/02 06:31:10;;;;;;;29.73;16.42;;;;;;;8.10;100.00;98782.03;5071184;28;20039;-75
2021/11/02 06:33:45;;;;;;;;;;;;;;;7.98;100.00;98774.00;5072004;28;20139;-73
2021/11/02 06:42:02;;;;;;;32.20;17.30;;;;;;;8.11;100.00;98762.50;5072158;28;20063;-70
2021/11/02 06:47:34;;;;;;;33.78;18.10;;;;;;;8.15;100.00;98753.34;5089597;28;20059;-72
2021/11/02 06:53:20;;;;;;;;;;;;;;;8.14;99.58;98762.25;5048982;28;20163;-76
2021/11/02 07:19:12;;;;;;;29.42;17.30;;;;;;;8.57;96.29;98807.75;5150595;27;20351;-74
2021/11/02 07:21:53;;;;;;;31.23;17.35;;;;;;;8.62;94.36;98810.09;5129869;28;20053;-71
2021/11/02 07:24:28;;;;;;;29.50;17.20;;;;;;;8.47;97.40;98815.56;5130073;28;20099;-70
2021/11/02 07:27:06;;;;;;;33.05;17.38;;;;;;;8.56;94.65;98814.03;5129397;28;20070;-71
2021/11/02 08:45:57;;;;;;;30.33;17.92;;;;;;;9.31;90.76;98864.22;5113284;28;20043;-75
2021/11/02 08:48:28;;;;;;;29.80;17.65;;;;;;;9.30;90.56;98854.53;5113629;28;20097;-75
2021/11/02 08:50:59;;;;;;;28.48;17.08;;;;;;;9.45;90.36;98858.66;5113515;28;20130;-75
2021/11/02 08:53:29;;;;;;;28.20;17.67;;;;;;;9.36;91.89;98854.91;5113381;28;20134;-74
2021/11/02 08:55:57;;;;;;;27.52;16.92;;;;;;;9.49;90.81;98859.28;5113603;28;20122;-74
2021/11/02 08:58:29;;;;;;;29.85;16.90;;;;;;;9.53;90.78;98858.91;5113371;28;20043;-72
2021/11/02 09:00:58;;;;;;;33.03;17.75;;;;;;;9.57;90.56;98855.06;5113106;28;20046;-73
2021/11/02 09:03:30;;;;;;;28.08;17.02;;;;;;;9.59;91.13;98850.47;5113287;28;20071;-76
2021/11/02 09:06:03;;;;;;;31.20;17.55;;;;;;;9.67;90.58;98863.19;5113433;28;20035;-73
2021/11/02 09:08:39;;;;;;;32.20;18.27;;;;;;;9.61;89.10;98853.00;5112413;28;20070;-71
2021/11/02 09:11:07;;;;;;;29.40;17.95;;;;;;;9.52;90.29;98851.06;5113407;28;20046;-72
2021/11/02 09:13:41;;;;;;;30.80;18.02;;;;;;;9.44;91.80;98846.31;5113602;28;20042;-72
2021/11/02 09:16:11;;;;;;;32.65;17.90;;;;;;;9.44;93.50;98857.81;5113374;28;20043;-71
2021/11/02 09:18:42;;;;;;;31.48;18.00;;;;;;;9.39;97.14;98851.16;5113373;28;20145;-77
2021/11/02 09:21:10;;;;;;;30.95;18.23;;;;;;;9.33;94.00;98849.81;5112758;28;20054;-72
2021/11/02 09:23:41;;;;;;;32.03;18.55;;;;;;;9.22;98.23;98852.47;5112656;28;20067;-72
2021/11/02 09:26:10;;;;;;;30.20;17.70;;;;;;;9.21;97.52;98855.25;5112635;28;20368;-70
2021/11/02 09:28:40;;;;;;;33.30;17.58;;;;;;;9.09;99.09;98855.22;5113007;28;20366;-71
2021/11/02 09:31:09;;;;;;;31.02;18.17;;;;;;;9.28;96.53;98864.44;5113026;28;20096;-71
2021/11/02 09:33:37;;;;;;;30.38;19.17;;;;;;;9.15;99.32;98862.72;5113064;28;20465;-71
2021/11/02 09:36:08;;;;;;;29.25;18.20;;;;;;;9.09;100.00;98857.88;5094088;28;20123;-72
2021/11/02 09:38:46;;;;;;;32.70;19.42;;;;;;;9.14;100.00;98854.84;5112844;28;20042;-74
2021/11/02 09:41:44;;;;;;;31.38;18.85;;;;;;;9.14;100.00;98857.50;5111870;28;20036;-75
2021/11/02 09:44:40;;;;;;;29.67;17.65;;;;;;;9.07;100.00;98846.50;5112081;28;20477;-73
2021/11/02 09:47:41;;;;;;;28.42;18.02;;;;;;;9.14;100.00;98847.72;5110494;28;20051;-74
2021/11/02 09:50:47;;;;;;;31.65;19.20;;;;;;;9.45;100.00;98842.69;5111719;28;20061;-72
2021/11/02 09:53:52;;;;;;;32.25;18.52;;;;;;;9.54;100.00;98830.47;5095125;28;20790;-76
2021/11/02 09:56:39;;;;;;;30.98;19.10;;;;;;;9.47;100.00;98827.47;5086875;28;20077;-71
2021/11/02 09:59:40;;;;;;;33.35;20.35;;;;;;;9.46;100.00;98831.94;5111302;28;20040;-72
2021/11/02 10:02:32;;;;;;;;;;;;;;;9.42;100.00;98837.59;5112306;28;20039;-75
2021/11/02 10:05:17;;;;;;;30.50;17.25;;;;;;;9.24;100.00;98820.41;5111995;28;20030;-76
2021/11/02 10:08:00;;;;;;;33.70;19.15;;;;;;;9.18;100.00;98822.59;5094446;28;20188;-75
2021/11/02 10:10:39;;;;;;;32.97;19.07;;;;;;;9.03;100.00;98810.47;5112468;28;20069;-73
2021/11/02 10:13:25;;;;;;;32.20;18.70;;;;;;;8.98;100.00;98802.00;5111652;28;20295;-72
2021/11/02 10:16:04;;;;;;;36.03;20.50;;;;;;;8.96;100.00;98797.72;5093524;28;20040;-73
2021/11/02 10:18:47;;;;;;;32.55;20.33;;;;;;;8.65;100.00;98793.91;5111830;28;20048;-75
2021/11/02 10:22:01;;;;;;;35.58;19.95;;;;;;;8.63;100.00;98796.69;5110790;28;20063;-78
2021/11/02 10:25:13;;;;;;;34.67;20.08;;;;;;;8.59;100.00;98798.72;5111465;28;20489;-76
2021/11/02 10:28:05;;;;;;;36.88;20.77;;;;;;;8.82;100.00;98790.81;5084481;28;20128;-70
2021/11/02 10:30:38;;;;;;;34.95;20.98;;;;;;;8.97;100.00;98781.66;5095856;28;20419;-71
2021/11/02 10:33:19;;;;;;;42.15;20.80;;;;;;;8.81;100.00;98783.81;5093523;28;20067;-73
2021/11/02 10:36:19;;;;;;;36.00;20.63;;;;;;;8.68;100.00;98783.03;5112047;28;20035;-71
2021/11/02 10:39:02;;;;;;;40.55;21.38;;;;;;;8.68;100.00;98783.03;5066486;28;20074;-71
2021/11/02 10:41:38;;;;;;;38.08;21.48;;;;;;;8.87;100.00;98767.38;5111725;28;20128;-71
2021/11/02 10:44:18;;;;;;;36.22;20.75;;;;;;;8.65;100.00;98754.03;5111531;28;20040;-71
2021/11/02 10:46:58;;;;;;;41.22;22.55;;;;;;;8.74;100.00;98750.69;5112010;28;20043;-73
2021/11/02 10:49:33;;;;;;;34.90;20.05;;;;;;;8.60;100.00;98749.09;5115924;28;20044;-71
2021/11/02 10:52:07;;;;;;;38.92;20.83;;;;;;;8.65;100.00;98746.06;5112859;28;20050;-71
2021/11/02 10:54:51;;;;;;;36.03;20.60;;;;;;;8.65;100.00;98741.59;5091477;28;20162;-71
2021/11/02 10:57:38;;;;;;;38.45;20.80;;;;;;;8.25;100.00;98744.56;5091718;28;20085;-70
2021/11/02 11:00:08;;;;;;;40.63;22.00;;;;;;;8.20;100.00;98745.84;5096545;28;20124;-74
2021/11/02 11:02:38;;;;;;;41.65;23.05;;;;;;;8.32;100.00;98752.94;5091032;28;20040;-73
2021/11/02 11:05:08;;;;;;;43.78;23.75;;;;;;;8.28;100.00;98764.72;5090601;28;20385;-73
2021/11/02 11:07:42;;;;;;;42.63;24.40;;;;;;;8.25;100.00;98770.28;5091125;28;20048;-74
2021/11/02 11:10:11;;;;;;;39.60;23.02;;;;;;;8.32;100.00;98766.22;5072750;28;20165;-73
2021/11/02 11:12:45;;;;;;;42.38;23.02;;;;;;;8.21;100.00;98758.19;5072891;28;20052;-73
2021/11/02 11:15:13;;;;;;;40.55;23.02;;;;;;;8.19;100.00;98760.94;5090792;28;20036;-75
2021/11/02 11:17:49;;;;;;;44.08;23.38;;;;;;;8.10;100.00;98756.31;5090264;28;20056;-77
2021/11/02 11:20:19;;;;;;;43.38;22.92;;;;;;;7.97;100.00;98748.41;5090147;28;20040;-72
2021/11/02 11:22:51;;;;;;;41.58;22.45;;;;;;;7.79;100.00;98752.41;5095930;28;20066;-71
2021/11/02 11:25:25;;;;;;;48.17;24.73;;;;;;;7.83;100.00;98737.97;5109920;28;20202;-76
2021/11/02 11:27:58;;;;;;;39.47;23.05;;;;;;;7.80;100.00;98743.47;5110633;28;20104;-77
2021/11/02 11:30:29;;;;;;;42.85;24.20;;;;;;;7.83;100.00;98745.06;5110206;28;20052;-75
2021/11/02 11:32:58;;;;;;;41.92;23.63;;;;;;;7.75;100.00;98742.97;5092433;28;20063;-76
2021/11/02 11:35:27;;;;;;;42.45;23.23;;;;;;;7.89;100.00;98737.50;5110005;28;20127;-72
2021/11/02 11:38:01;;;;;;;43.95;24.60;;;;;;;7.95;100.00;98752.16;5110480;28;20039;-73
2021/11/02 11:40:33;;;;;;;41.47;23.50;;;;;;;8.02;100.00;98753.41;5110982;28;20188;-73
2021/11/02 11:43:03;;;;;;;46.72;26.23;;;;;;;7.94;100.00;98764.56;5110932;28;20055;-74
2021/11/02 11:45:35;;;;;;;38.42;22.63;;;;;;;8.01;100.00;98776.44;5110412;28;20043;-74
2021/11/02 11:48:06;;;;;;;42.95;24.63;;;;;;;8.03;100.00;98777.19;5110909;28;20051;-73
2021/11/02 11:50:36;;;;;;;45.63;24.92;;;;;;;8.02;100.00;98788.75;5092890;28;20083;-73
2021/11/02 11:53:06;;;;;;;46.47;25.33;;;;;;;8.07;100.00;98791.06;5110194;28;20051;-73
2021/11/02 11:55:37;;;;;;;42.85;23.42;;;;;;;8.14;100.00;98783.50;5111016;28;20054;-73
2021/11/02 11:58:08;;;;;;;40.78;22.98;;;;;;;8.09;100.00;98790.94;5110723;28;20040;-77
2021/11/02 12:00:38;;;;;;;42.00;25.17;;;;;;;8.20;100.00;98785.69;5110714;28;20061;-72
2021/11/02 12:03:17;;;;;;;39.03;23.63;;;;;;;8.24;100.00;98779.22;5111243;28;20039;-72
2021/11/02 12:05:49;;;;;;;43.03;23.90;;;;;;;8.18;100.00;98779.66;5114352;28;20063;-71
2021/11/02 12:08:23;;;;;;;43.25;24.58;;;;;;;8.08;100.00;98784.78;5114482;28;20042;-72
2021/11/02 12:11:00;;;;;;;41.53;24.52;;;;;;;8.09;100.00;98781.19;5115139;28;20423;-74
2021/11/02 12:13:29;;;;;;;36.58;21.08;;;;;;;8.15;100.00;98778.09;5114399;28;20046;-76
2021/11/02 12:16:09;;;;;;;37.67;22.92;;;;;;;8.28;100.00;98770.03;5114480;28;20071;-71
2021/11/02 12:18:41;;;;;;;38.53;23.08;;;;;;;8.22;100.00;98781.13;5114947;28;20104;-70
2021/11/02 12:21:16;;;;;;;43.17;23.23;;;;;;;8.13;100.00;98781.81;5114646;28;20112;-73
2021/11/02 12:23:51;;;;;;;41.75;23.08;;;;;;;8.24;100.00;98785.38;5113957;28;20039;-70
2021/11/02 12:26:19;;;;;;;37.95;23.30;;;;;;;8.31;100.00;98791.09;5114331;28;20049;-75
2021/11/02 12:28:49;;;;;;;36.95;22.38;;;;;;;8.27;100.00;98790.44;5096081;28;20043;-75
2021/11/02 12:31:19;;;;;;;41.03;23.45;;;;;;;8.21;100.00;98798.03;5114342;28;20043;-72
2021/11/02 12:33:49;;;;;;;39.53;23.98;;;;;;;8.18;100.00;98795.59;5095478;28;20079;-73
2021/11/02 12:36:22;;;;;;;40.53;23.95;;;;;;;8.30;100.00;98794.72;5113960;28;20055;-72
2021/11/02 12:39:01;;;;;;;40.20;23.33;;;;;;;8.29;100.00;98793.00;5114499;28;20084;-73
2021/11/02 12:41:29;;;;;;;35.72;21.85;;;;;;;8.24;100.00;98800.47;5113619;28;20499;-71
2021/11/02 12:44:05;;;;;;;39.78;22.95;;;;;;;8.24;100.00;98798.66;5114345;28;20084;-72
2021/11/02 12:46:39;;;;;;;38.28;22.88;;;;;;;8.24;100.00;98789.84;5113278;28;20149;-72
2021/11/02 12:49:09;;;;;;;40.45;23.92;;;;;;;8.15;100.00;98799.31;5113806;28;20042;-73
2021/11/02 12:51:45;;;;;;;38.70;22.70;;;;;;;8.13;100.00;98795.09;5113971;28;20057;-72
2021/11/02 12:54:21;;;;;;;40.28;22.70;;;;;;;8.11;100.00;98805.00;5112711;28;20044;-73
2021/11/02 12:56:54;;;;;;;37.92;22.63;;;;;;;8.03;100.00;98805.53;5113985;28;20040;-71
2021/11/02 12:59:32;;;;;;;39.75;22.70;;;;;;;8.11;100.00;98815.63;5113450;28;20492;-71
2021/11/02 13:02:19;;;;;;;39.17;22.48;;;;;;;8.05;100.00;98808.94;5113627;28;20070;-71
2021/11/02 13:04:57;;;;;;;38.83;21.92;;;;;;;8.31;100.00;98802.56;5113469;28;20043;-75
2021/11/02 13:07:38;;;;;;;38.67;22.05;;;;;;;8.27;100.00;98805.53;5111910;28;20078;-70
2021/11/02 13:10:15;;;;;;;36.35;21.75;;;;;;;8.29;100.00;98814.25;5113284;28;20047;-71
2021/11/02 13:12:49;;;;;;;39.33;23.38;;;;;;;8.24;100.00;98813.75;5113147;28;20039;-73
2021/11/02 13:15:19;;;;;;;37.70;22.10;;;;;;;8.23;100.00;98812.06;5112031;28;20515;-74
2021/11/02 13:17:51;;;;;;;37.60;21.58;;;;;;;8.28;100.00;98812.53;5113750;28;20052;-72
2021/11/02 13:20:34;;;;;;;35.03;20.63;;;;;;;8.30;100.00;98805.34;5112590;28;20071;-72
2021/11/02 13:23:03;;;;;;;35.50;21.45;;;;;;;8.16;100.00;98813.47;5112604;28;20472;-71
2021/11/02 13:25:39;;;;;;;34.75;21.00;;;;;;;8.20;100.00;98809.59;5112727;28;20079;-72
2021/11/02 13:28:08;;;;;;;34.92;20.08;;;;;;;8.18;100.00;98807.06;5112636;28;20039;-73
2021/11/02 13:30:38;;;;;;;33.92;20.35;;;;;;;8.26;100.00;98820.63;5112510;28;20112;-73
2021/11/02 13:33:12;;;;;;;37.33;22.17;;;;;;;8.28;100.00;98809.88;5112922;28;20131;-73
2021/11/02 13:35:50;;;;;;;36.33;22.85;;;;;;;8.22;100.00;98819.19;5094421;28;20060;-72
2021/11/02 13:38:29;;;;;;;31.45;19.48;;;;;;;8.22;100.00;98818.31;5112378;28;20042;-72
2021/11/02 13:41:05;;;;;;;33.83;19.70;;;;;;;8.29;100.00;98817.75;5113112;28;20220;-71
2021/11/02 13:43:36;;;;;;;32.08;19.55;;;;;;;8.30;100.00;98811.50;5112289;28;20426;-72
2021/11/02 13:46:07;;;;;;;31.00;18.80;;;;;;;8.25;100.00;98812.78;5112953;28;20093;-72
2021/11/02 13:48:37;;;;;;;31.42;19.70;;;;;;;8.25;100.00;98812.78;5112687;28;20143;-73
2021/11/02 13:51:07;;;;;;;34.70;21.27;;;;;;;8.33;100.00;98807.75;5112269;28;20051;-73
2021/11/02 13:53:35;;;;;;;32.05;19.55;;;;;;;8.52;100.00;98816.09;5112445;28;20051;-73
2021/11/02 13:56:07;;;;;;;29.65;18.83;;;;;;;8.48;100.00;98817.25;5112376;28;20046;-73
2021/11/02 13:58:37;;;;;;;28.40;17.73;;;;;;;8.52;100.00;98823.22;5112326;28;20043;-72
2021/11/02 14:01:08;;;;;;;26.00;16.60;;;;;;;8.47;100.00;98815.56;5112626;28;20044;-69
2021/11/02 14:03:44;;;;;;;27.67;17.67;;;;;;;8.38;100.00;98816.25;5111669;28;20040;-72
2021/11/02 14:06:16;;;;;;;28.80;17.17;;;;;;;8.50;100.00;98820.69;5112847;28;20177;-69
2021/11/02 14:08:46;;;;;;;29.55;17.77;;;;;;;8.73;100.00;98818.09;5111890;28;20488;-70
2021/11/02 14:11:25;;;;;;;26.90;17.75;;;;;;;8.77;100.00;98808.94;5112252;28;20213;-70
2021/11/02 14:13:55;;;;;;;25.58;15.95;;;;;;;8.92;100.00;98804.25;5111561;28;20062;-72
2021/11/02 14:16:41;;;;;;;24.27;14.18;;;;;;;8.76;100.00;98809.88;5111684;28;20104;-73
2021/11/02 14:19:38;;;;;;;25.60;16.13;;;;;;;8.76;100.00;98815.22;5093873;28;20079;-73
2021/11/02 14:22:08;;;;;;;24.77;15.68;;;;;;;8.80;100.00;98822.00;5111825;28;20072;-71
2021/11/02 14:24:38;;;;;;;23.80;14.90;;;;;;;8.57;100.00;98827.22;5111748;28;20381;-73
2021/11/02 14:27:09;;;;;;;26.70;17.10;;;;;;;8.46;100.00;98836.94;5111469;28;20062;-72
2021/11/02 14:29:54;;;;;;;26.85;16.65;;;;;;;8.43;100.00;98837.19;5111229;28;20040;-73
2021/11/02 14:32:56;;;;;;;26.40;16.23;;;;;;;8.36;100.00;98847.41;5111929;28;20039;-69
2021/11/02 14:35:46;;;;;;;27.10;16.88;;;;;;;8.26;100.00;98846.34;5111224;28;20044;-70
2021/11/02 14:38:17;;;;;;;27.20;18.23;;;;;;;8.25;100.00;98860.59;5111940;28;20535;-72
2021/11/02 14:41:24;;;;;;;28.02;17.60;;;;;;;8.34;100.00;98865.25;5111306;28;20044;-71
2021/11/02 14:44:26;;;;;;;28.63;17.60;;;;;;;8.41;100.00;98873.66;5111381;28;20043;-72
2021/11/02 14:46:57;;;;;;;29.60;18.15;;;;;;;8.43;100.00;98875.22;5111177;28;20431;-70
2021/11/02 14:49:44;;;;;;;26.95;17.13;;;;;;;8.45;100.00;98865.34;5110300;28;20096;-71
2021/11/02 14:52:24;;;;;;;27.95;18.05;;;;;;;8.42;100.00;98870.03;5110478;28;20044;-70
2021/11/02 14:54:53;;;;;;;27.95;18.63;;;;;;;8.38;100.00;98874.72;5110691;28;20089;-78
2021/11/02 14:57:52;;;;;;;28.25;17.83;;;;;;;8.49;100.00;98876.56;5110702;28;20050;-77
2021/11/02 15:00:41;;;;;;;29.15;17.83;;;;;;;8.59;100.00;98882.94;5092926;28;20051;-76
2021/11/02 15:03:32;;;;;;;30.42;18.50;;;;;;;8.62;100.00;98879.19;5111202;28;20071;-74
2021/11/02 15:06:04;;;;;;;28.05;17.60;;;;;;;8.63;100.00;98875.56;5111516;28;20096;-74
2021/11/02 15:08:35;;;;;;;29.25;18.45;;;;;;;8.58;100.00;98878.56;5111328;28;20035;-74
2021/11/02 15:11:08;;;;;;;28.27;17.17;;;;;;;8.60;100.00;98880.16;5111316;28;20051;-73
2021/11/02 15:13:38;;;;;;;28.97;17.90;;;;;;;8.55;100.00;98884.97;5110790;28;20072;-74
2021/11/02 15:16:08;;;;;;;27.15;17.92;;;;;;;8.45;100.00;98888.41;5111364;28;20059;-74
2021/11/02 15:18:42;;;;;;;28.98;17.52;;;;;;;8.45;100.00;98881.28;5110813;28;20051;-74
2021/11/02 15:21:16;;;;;;;29.38;18.15;;;;;;;8.50;100.00;98892.44;5111117;28;20109;-76
2021/11/02 15:23:48;;;;;;;25.25;15.32;;;;;;;8.56;100.00;98897.28;5110628;28;20084;-71
2021/11/02 15:26:44;;;;;;;26.05;16.52;;;;;;;8.63;100.00;98896.84;5111139;28;20047;-71
2021/11/02 15:29:12;;;;;;;26.40;16.55;;;;;;;8.57;100.00;98912.25;5111229;28;20046;-74
2021/11/02 15:31:53;;;;;;;25.60;15.63;;;;;;;8.57;100.00;98914.91;5110867;28;20120;-73
2021/11/02 15:34:21;;;;;;;25.33;14.77;;;;;;;8.61;100.00;98920.88;5110938;28;20040;-73
2021/11/02 15:37:03;;;;;;;26.27;15.80;;;;;;;8.54;100.00;98936.41;5110904;28;20175;-75
2021/11/02 15:39:53;;;;;;;26.85;15.90;;;;;;;8.44;100.00;98922.09;5112896;28;20427;-70
2021/11/02 15:42:28;;;;;;;26.17;15.90;;;;;;;8.34;100.00;98931.66;5114885;28;20067;-70
2021/11/02 15:44:58;;;;;;;29.23;17.80;;;;;;;8.24;100.00;98933.28;5114387;28;20058;-70
2021/11/02 15:47:29;;;;;;;29.02;17.85;;;;;;;8.24;100.00;98943.91;5114431;28;20063;-71
2021/11/02 15:49:59;;;;;;;30.02;18.35;;;;;;;8.27;100.00;98943.69;5114840;28;20043;-71
2021/11/02 15:52:29;;;;;;;32.90;19.92;;;;;;;8.19;100.00;98954.84;5114225;28;20043;-70
2021/11/02 15:55:05;;;;;;;32.05;18.75;;;;;;;8.29;100.00;98942.59;5113936;28;20040;-72
2021/11/02 15:57:46;;;;;;;31.10;17.27;;;;;;;8.19;100.00;98954.84;5114874;28;20138;-72
2021/11/02 16:00:16;;;;;;;30.80;19.02;;;;;;;8.16;100.00;98956.88;5114776;28;20287;-70
2021/11/02 16:02:46;;;;;;;32.10;18.73;;;;;;;8.19;100.00;98962.81;5114349;28;20081;-71
2021/11/02 16:05:18;;;;;;;33.58;20.23;;;;;;;8.17;100.00;98943.47;5114532;28;20047;-72
2021/11/02 16:07:50;;;;;;;31.50;18.75;;;;;;;8.36;100.00;98956.34;5114318;28;20066;-74
2021/11/02 16:10:24;;;;;;;30.90;18.58;;;;;;;8.25;100.00;98961.53;5114469;28;20064;-72